createdAt,value
2019-04-14T00:00:23.634Z,53.40
2019-04-14T00:02:44.721Z,56.17
2019-04-14T00:04:50.829Z,56.00
2019-04-14T00:06:54.786Z,58.50
2019-04-14T00:08:58.711Z,60.30
2019-04-14T00:11:02.412Z,57.40
2019-04-14T00:13:06.773Z,62.57
2019-04-14T00:15:24.387Z,60.73
2019-04-14T00:17:17.874Z,61.37
2019-04-14T00:19:21.799Z,60.10
2019-04-14T00:21:26.072Z,60.83
2019-04-14T00:23:30.424Z,58.70
2019-04-14T00:25:34.786Z,59.33
2019-04-14T00:27:38.867Z,60.97
2019-04-14T00:29:43.625Z,61.30
2019-04-14T00:31:47.935Z,61.20
2019-04-14T00:33:54.263Z,58.77
2019-04-14T00:36:00.230Z,61.20
2019-04-14T00:38:17.648Z,69.20
2019-04-14T00:40:27.081Z,62.57
2019-04-14T00:42:47.371Z,68.67
2019-04-14T00:44:53.750Z,66.60
2019-04-14T00:47:00.536Z,64.17
2019-04-14T00:49:04.976Z,63.93
2019-04-14T00:51:09.192Z,72.00
2019-04-14T00:53:13.943Z,65.47
2019-04-14T00:55:18.335Z,63.73
2019-04-14T00:57:22.412Z,65.33
2019-04-14T00:59:26.810Z,65.13
2019-04-14T01:01:30.893Z,63.67
2019-04-14T01:03:35.202Z,67.13
2019-04-14T01:05:39.350Z,65.93
2019-04-14T01:07:43.442Z,66.23
2019-04-14T01:09:47.116Z,71.53
2019-04-14T01:11:51.081Z,68.00
2019-04-14T01:13:55.114Z,60.37
2019-04-14T01:16:07.193Z,66.47
2019-04-14T01:18:04.214Z,67.67
2019-04-14T01:20:07.973Z,63.27
2019-04-14T01:22:12.002Z,65.30
2019-04-14T01:24:16.375Z,59.67
2019-04-14T01:26:20.349Z,63.13
2019-04-14T01:28:24.422Z,60.37
2019-04-14T01:30:28.410Z,63.67
2019-04-14T01:32:32.652Z,69.57
2019-04-14T01:34:37.006Z,66.83
2019-04-14T01:36:40.949Z,61.90
2019-04-14T01:38:44.997Z,62.87
2019-04-14T01:40:48.876Z,62.90
2019-04-14T01:42:52.821Z,60.43
2019-04-14T01:44:57.072Z,62.90
2019-04-14T01:47:01.047Z,63.80
2019-04-14T01:49:05.005Z,59.20
2019-04-14T01:51:20.267Z,67.30
2019-04-14T01:53:44.604Z,63.00
2019-04-14T01:55:54.890Z,62.10
2019-04-14T01:58:01.032Z,61.43
2019-04-14T02:00:20.885Z,64.80
2019-04-14T02:02:26.990Z,63.70
2019-04-14T02:04:31.269Z,68.20
2019-04-14T02:06:35.613Z,62.27
2019-04-14T02:08:39.397Z,67.47
2019-04-14T02:10:43.468Z,68.73
2019-04-14T02:12:47.412Z,70.53
2019-04-14T02:14:51.622Z,70.30
2019-04-14T02:16:58.770Z,67.73
2019-04-14T02:19:00.884Z,68.83
2019-04-14T02:21:06.444Z,61.50
2019-04-14T02:23:10.419Z,64.20
2019-04-14T02:25:14.321Z,66.80
2019-04-14T02:27:18.824Z,65.67
2019-04-14T02:29:23.332Z,63.77
2019-04-14T02:31:54.441Z,65.17
2019-04-14T02:34:17.056Z,63.33
2019-04-14T02:38:18.202Z,63.27
2019-04-14T02:40:24.302Z,63.10
2019-04-14T02:42:30.952Z,64.07
2019-04-14T02:44:33.548Z,59.03
2019-04-14T02:46:38.406Z,65.57
2019-04-14T02:48:44.157Z,61.20
2019-04-14T02:50:42.215Z,59.87
2019-04-14T02:54:59.612Z,63.33
2019-04-14T02:57:03.659Z,67.17
2019-04-14T03:01:21.354Z,63.77
2019-04-14T03:03:16.092Z,60.30
2019-04-14T03:05:16.403Z,61.63
2019-04-14T03:09:36.405Z,69.67
2019-04-14T03:11:41.593Z,65.93
2019-04-14T03:13:49.546Z,63.97
2019-04-14T03:15:47.834Z,64.23
2019-04-14T03:18:00.555Z,66.57
2019-04-14T03:20:15.292Z,66.23
2019-04-14T03:24:27.443Z,69.47
2019-04-14T03:26:35.280Z,67.47
2019-04-14T03:28:38.698Z,66.37
2019-04-14T03:37:31.526Z,66.20
2019-04-14T03:39:34.832Z,62.37
2019-04-14T03:41:24.154Z,68.70
2019-04-14T03:43:25.017Z,66.90
2019-04-14T03:45:36.475Z,64.87
2019-04-14T03:47:34.461Z,67.63
2019-04-14T03:49:54.360Z,68.63
2019-04-14T03:53:47.269Z,65.53
2019-04-14T03:55:58.519Z,68.60
2019-04-14T03:57:56.999Z,63.50
2019-04-14T04:00:00.768Z,64.63
2019-04-14T04:02:05.353Z,66.50
2019-04-14T04:04:09.838Z,69.30
2019-04-14T04:06:13.923Z,71.73
2019-04-14T04:08:18.044Z,73.70
2019-04-14T04:10:22.575Z,73.57
2019-04-14T04:12:27.177Z,71.23
2019-04-14T04:14:31.345Z,69.40
2019-04-14T04:16:37.623Z,67.23
2019-04-14T04:18:51.266Z,69.43
2019-04-14T04:20:58.730Z,71.43
2019-04-14T04:23:07.363Z,70.13
2019-04-14T04:25:13.857Z,76.83
2019-04-14T04:27:35.568Z,73.63
2019-04-14T04:29:41.781Z,64.37
2019-04-14T04:31:54.743Z,65.90
2019-04-14T04:34:03.344Z,66.93
2019-04-14T04:36:27.019Z,67.67
2019-04-14T04:38:48.707Z,68.43
2019-04-14T04:40:52.855Z,68.60
2019-04-14T04:42:56.960Z,69.03
2019-04-14T04:45:01.685Z,67.57
2019-04-14T04:47:05.800Z,68.50
2019-04-14T04:49:15.095Z,69.53
2019-04-14T04:51:15.935Z,64.97
2019-04-14T04:53:20.199Z,68.60
2019-04-14T04:55:24.200Z,66.03
2019-04-14T04:57:28.547Z,66.07
2019-04-14T04:59:32.335Z,69.37
2019-04-14T05:01:36.492Z,64.83
2019-04-14T05:03:40.683Z,68.23
2019-04-14T05:06:09.547Z,68.60
2019-04-14T05:08:13.352Z,63.63
2019-04-14T05:10:24.591Z,66.20
2019-04-14T05:12:30.591Z,66.27
2019-04-14T05:14:36.885Z,69.20
2019-04-14T05:16:41.855Z,61.63
2019-04-14T05:18:46.322Z,70.63
2019-04-14T05:20:51.019Z,65.03
2019-04-14T05:22:55.056Z,70.17
2019-04-14T05:24:59.285Z,62.87
2019-04-14T05:27:03.638Z,65.13
2019-04-14T05:29:07.808Z,61.43
2019-04-14T05:31:12.156Z,63.90
2019-04-14T05:33:16.279Z,66.13
2019-04-14T05:35:20.576Z,62.30
2019-04-14T05:37:24.740Z,66.10
2019-04-14T05:39:28.625Z,64.80
2019-04-14T05:41:33.006Z,68.63
2019-04-14T05:43:48.164Z,63.70
2019-04-14T05:45:45.862Z,62.13
2019-04-14T05:47:50.144Z,61.87
2019-04-14T05:49:56.195Z,60.07
2019-04-14T05:51:59.383Z,60.77
2019-04-14T05:54:03.439Z,65.17
2019-04-14T05:56:07.932Z,63.70
2019-04-14T05:58:12.199Z,57.67
2019-04-14T06:00:18.918Z,56.60
2019-04-14T06:02:22.783Z,59.40
2019-04-14T06:04:26.500Z,54.57
2019-04-14T06:06:30.191Z,57.67
2019-04-14T06:08:33.851Z,54.50
2019-04-14T06:10:37.558Z,55.67
2019-04-14T06:12:41.216Z,53.03
2019-04-14T06:14:44.874Z,53.47
2019-04-14T06:16:48.710Z,55.20
2019-04-14T06:18:52.369Z,57.20
2019-04-14T06:20:56.067Z,54.20
2019-04-14T06:22:59.758Z,52.47
2019-04-14T06:25:04.986Z,53.13
2019-04-14T06:27:08.670Z,54.57
2019-04-14T06:29:15.041Z,52.37
2019-04-14T06:31:38.267Z,52.23
2019-04-14T06:33:43.507Z,52.20
2019-04-14T06:36:05.252Z,48.90
2019-04-14T06:38:10.495Z,54.93
2019-04-14T06:40:14.229Z,46.73
2019-04-14T06:42:17.906Z,47.70
2019-04-14T06:44:21.601Z,47.57
2019-04-14T06:46:25.288Z,49.83
2019-04-14T06:48:28.983Z,48.50
2019-04-14T06:50:32.637Z,46.93
2019-04-14T06:52:36.421Z,45.87
2019-04-14T06:54:40.086Z,47.83
2019-04-14T06:56:43.779Z,48.33
2019-04-14T06:58:47.502Z,51.63
2019-04-14T07:00:52.979Z,51.40
2019-04-14T07:02:56.775Z,46.60
2019-04-14T07:05:00.446Z,50.53
2019-04-14T07:07:04.126Z,48.03
2019-04-14T07:09:08.158Z,50.23
2019-04-14T07:11:11.827Z,49.03
2019-04-14T07:13:15.514Z,43.10
2019-04-14T07:15:19.173Z,50.73
2019-04-14T07:17:22.884Z,45.63
2019-04-14T07:19:26.560Z,44.13
2019-04-14T07:21:30.224Z,42.10
2019-04-14T07:23:34.010Z,44.80
2019-04-14T07:25:37.657Z,40.17
2019-04-14T07:27:41.386Z,40.93
2019-04-14T07:29:49.188Z,49.47
2019-04-14T07:32:12.471Z,46.73
2019-04-14T07:34:26.951Z,45.00
2019-04-14T07:36:50.345Z,44.97
2019-04-14T07:39:10.662Z,46.40
2019-04-14T07:41:18.313Z,44.07
2019-04-14T07:43:26.122Z,46.90
2019-04-14T07:45:31.368Z,46.17
2019-04-14T07:47:39.258Z,46.40
2019-04-14T07:49:56.477Z,46.37
2019-04-14T07:52:01.735Z,41.90
2019-04-14T07:54:07.025Z,46.67
2019-04-14T07:56:12.263Z,44.33
2019-04-14T07:58:20.906Z,41.63
2019-04-14T08:00:44.199Z,43.43
2019-04-14T08:02:49.551Z,43.47
2019-04-14T08:05:00.350Z,42.50
2019-04-14T08:07:04.193Z,44.60
2019-04-14T08:09:07.985Z,41.27
2019-04-14T08:11:11.682Z,38.67
2019-04-14T08:13:15.358Z,41.73
2019-04-14T08:15:19.068Z,40.73
2019-04-14T08:17:22.726Z,42.33
2019-04-14T08:19:26.417Z,40.57
2019-04-14T08:21:30.087Z,38.80
2019-04-14T08:23:33.872Z,39.70
2019-04-14T08:25:37.654Z,41.97
2019-04-14T08:27:43.645Z,39.13
2019-04-14T08:29:47.507Z,38.97
2019-04-14T08:31:51.198Z,38.43
2019-04-14T08:33:54.846Z,44.33
2019-04-14T08:35:58.761Z,38.80
2019-04-14T08:38:02.413Z,36.63
2019-04-14T08:40:06.523Z,33.43
2019-04-14T08:42:14.573Z,37.07
2019-04-14T08:44:19.863Z,36.47
2019-04-14T08:46:25.227Z,40.60
2019-04-14T08:48:49.009Z,42.40
2019-04-14T08:50:54.286Z,35.03
2019-04-14T08:53:08.421Z,36.47
2019-04-14T08:55:13.675Z,32.47
2019-04-14T08:57:19.030Z,32.80
2019-04-14T08:59:26.859Z,33.47
2019-04-14T09:01:38.149Z,34.33
2019-04-14T09:03:45.934Z,34.57
2019-04-14T09:05:51.186Z,37.07
2019-04-14T09:07:56.545Z,36.40
2019-04-14T09:10:04.614Z,36.27
2019-04-14T09:12:15.705Z,36.23
2019-04-14T09:14:24.054Z,34.77
2019-04-14T09:16:27.799Z,34.87
2019-04-14T09:18:31.460Z,33.20
2019-04-14T09:20:35.162Z,36.20
2019-04-14T09:22:38.836Z,35.47
2019-04-14T09:24:42.506Z,38.07
2019-04-14T09:26:46.210Z,36.63
2019-04-14T09:28:49.875Z,34.47
2019-04-14T09:30:53.579Z,36.20
2019-04-14T09:32:57.259Z,35.23
2019-04-14T09:35:01.047Z,34.27
2019-04-14T09:37:04.764Z,37.80
2019-04-14T09:39:08.437Z,42.93
2019-04-14T09:41:12.279Z,38.43
2019-04-14T09:43:15.958Z,37.80
2019-04-14T09:45:19.716Z,39.57
2019-04-14T09:47:23.395Z,40.43
2019-04-14T09:49:27.070Z,34.93
2019-04-14T09:51:30.783Z,40.27
2019-04-14T09:53:34.488Z,37.33
2019-04-14T09:55:38.233Z,38.33
2019-04-14T09:57:41.951Z,43.53
2019-04-14T09:59:45.702Z,38.17
2019-04-14T10:01:49.375Z,36.40
2019-04-14T10:03:53.092Z,36.70
2019-04-14T10:05:56.764Z,39.33
2019-04-14T10:08:00.554Z,38.53
2019-04-14T10:10:04.907Z,39.97
2019-04-14T10:12:08.781Z,37.43
2019-04-14T10:14:12.478Z,40.17
2019-04-14T10:16:16.435Z,42.33
2019-04-14T10:18:20.198Z,38.50
2019-04-14T10:20:23.871Z,41.17
2019-04-14T10:22:33.792Z,38.87
2019-04-14T10:24:32.961Z,38.47
2019-04-14T10:26:36.612Z,41.70
2019-04-14T10:28:40.437Z,36.93
2019-04-14T10:30:44.107Z,39.17
2019-04-14T10:32:47.774Z,38.13
2019-04-14T10:34:51.461Z,39.50
2019-04-14T10:36:55.124Z,37.37
2019-04-14T10:38:58.818Z,38.43
2019-04-14T10:41:02.502Z,35.83
2019-04-14T10:43:06.159Z,36.67
2019-04-14T10:45:09.972Z,36.07
2019-04-14T10:47:13.672Z,36.30
2019-04-14T10:49:17.416Z,37.50
2019-04-14T10:51:29.842Z,37.20
2019-04-14T10:53:26.646Z,35.07
2019-04-14T10:55:32.763Z,37.70
2019-04-14T10:57:36.431Z,38.10
2019-04-14T10:59:40.123Z,38.20
2019-04-14T11:01:43.783Z,38.13
2019-04-14T11:03:47.449Z,36.83
2019-04-14T11:06:01.782Z,41.13
2019-04-14T11:08:05.461Z,38.10
2019-04-14T11:10:09.337Z,39.63
2019-04-14T11:12:13.002Z,41.03
2019-04-14T11:14:16.687Z,40.47
2019-04-14T11:16:20.474Z,40.67
2019-04-14T11:18:24.152Z,41.73
2019-04-14T11:20:27.839Z,36.50
2019-04-14T11:22:31.499Z,41.50
2019-04-14T11:24:35.167Z,36.70
2019-04-14T11:26:38.958Z,38.43
2019-04-14T11:28:42.634Z,38.60
2019-04-14T11:30:48.709Z,37.73
2019-04-14T11:32:56.560Z,37.57
2019-04-14T11:35:16.312Z,37.93
2019-04-14T11:37:37.191Z,37.00
2019-04-14T11:39:42.061Z,38.50
2019-04-14T11:41:45.775Z,37.90
2019-04-14T11:43:49.451Z,39.67
2019-04-14T11:45:53.236Z,39.50
2019-04-14T11:47:56.913Z,36.23
2019-04-14T11:50:00.574Z,39.07
2019-04-14T11:52:04.260Z,36.43
2019-04-14T11:54:07.935Z,36.13
2019-04-14T11:56:11.618Z,40.03
2019-04-14T11:58:15.321Z,34.83
2019-04-14T12:00:26.185Z,35.77
2019-04-14T12:02:43.378Z,40.73
2019-04-14T12:04:48.618Z,35.67
2019-04-14T12:06:53.866Z,35.73
2019-04-14T12:09:01.883Z,33.23
2019-04-14T12:11:05.572Z,31.50
2019-04-14T12:13:10.015Z,33.87
2019-04-14T12:15:16.563Z,35.23
2019-04-14T12:17:19.215Z,32.87
2019-04-14T12:19:22.871Z,34.77
2019-04-14T12:21:26.588Z,38.00
2019-04-14T12:23:30.299Z,36.40
2019-04-14T12:25:33.979Z,38.50
2019-04-14T12:27:37.676Z,36.30
2019-04-14T12:29:41.367Z,41.10
2019-04-14T12:31:46.492Z,36.67
2019-04-14T12:33:50.221Z,36.43
2019-04-14T12:35:54.094Z,37.17
2019-04-14T12:37:57.954Z,33.70
2019-04-14T12:40:02.742Z,32.43
2019-04-14T12:42:24.631Z,33.90
2019-04-14T12:44:47.033Z,32.30
2019-04-14T12:46:55.198Z,33.60
2019-04-14T12:49:03.306Z,33.83
2019-04-14T12:51:23.575Z,29.90
2019-04-14T12:53:27.267Z,33.93
2019-04-14T12:55:30.939Z,30.70
2019-04-14T12:57:36.216Z,31.80
2019-04-14T12:59:39.934Z,30.53
2019-04-14T13:02:01.106Z,34.10
2019-04-14T13:04:04.898Z,33.03
2019-04-14T13:06:08.561Z,35.30
2019-04-14T13:08:12.261Z,33.47
2019-04-14T13:10:15.935Z,28.87
2019-04-14T13:12:19.622Z,32.53
2019-04-14T13:14:23.348Z,30.27
2019-04-14T13:16:27.006Z,31.37
2019-04-14T13:18:30.717Z,31.63
2019-04-14T13:20:34.388Z,32.03
2019-04-14T13:22:38.132Z,32.93
2019-04-14T13:24:41.861Z,35.30
2019-04-14T13:26:45.534Z,31.30
2019-04-14T13:28:49.206Z,30.03
2019-04-14T13:30:53.416Z,31.17
2019-04-14T13:32:57.080Z,30.17
2019-04-14T13:35:00.846Z,32.57
2019-04-14T13:37:04.528Z,29.33
2019-04-14T13:39:08.336Z,34.17
2019-04-14T13:41:12.020Z,29.93
2019-04-14T13:43:15.699Z,33.67
2019-04-14T13:45:19.409Z,28.77
2019-04-14T13:47:23.063Z,30.77
2019-04-14T13:49:26.758Z,30.27
2019-04-14T13:51:30.463Z,27.10
2019-04-14T13:53:34.245Z,26.23
2019-04-14T13:55:37.950Z,30.90
2019-04-14T13:57:41.626Z,28.10
2019-04-14T13:59:45.373Z,25.57
2019-04-14T14:01:49.062Z,27.90
2019-04-14T14:03:52.738Z,23.97
2019-04-14T14:05:56.449Z,28.27
2019-04-14T14:08:00.109Z,26.33
2019-04-14T14:10:05.703Z,25.60
2019-04-14T14:12:27.227Z,24.13
2019-04-14T14:14:41.440Z,24.73
2019-04-14T14:17:04.798Z,25.13
2019-04-14T14:19:12.600Z,24.03
2019-04-14T14:21:17.905Z,23.23
2019-04-14T14:23:39.458Z,26.97
2019-04-14T14:25:44.733Z,24.63
2019-04-14T14:27:48.401Z,24.07
2019-04-14T14:29:52.205Z,24.83
2019-04-14T14:31:56.616Z,21.63
2019-04-14T14:34:00.385Z,23.40
2019-04-14T14:36:04.176Z,28.80
2019-04-14T14:38:07.843Z,22.83
2019-04-14T14:40:11.620Z,22.07
2019-04-14T14:42:15.322Z,21.63
2019-04-14T14:44:19.492Z,23.13
2019-04-14T14:46:31.037Z,23.07
2019-04-14T14:48:36.317Z,20.87
2019-04-14T14:50:41.558Z,23.97
2019-04-14T14:52:45.315Z,24.27
2019-04-14T14:54:48.964Z,20.73
2019-04-14T14:56:52.655Z,22.33
2019-04-14T14:58:56.319Z,23.67
2019-04-14T15:01:00.015Z,23.93
2019-04-14T15:03:03.874Z,21.97
2019-04-14T15:05:07.542Z,23.40
2019-04-14T15:07:11.236Z,22.20
2019-04-14T15:09:15.002Z,23.03
2019-04-14T15:11:18.789Z,23.33
2019-04-14T15:13:22.575Z,22.07
2019-04-14T15:15:27.709Z,21.67
2019-04-14T15:17:31.411Z,23.93
2019-04-14T15:19:35.069Z,22.77
2019-04-14T15:21:38.741Z,25.87
2019-04-14T15:23:42.422Z,21.93
2019-04-14T15:25:46.107Z,22.40
2019-04-14T15:27:49.797Z,22.87
2019-04-14T15:29:53.592Z,21.43
2019-04-14T15:31:57.254Z,22.13
2019-04-14T15:34:00.971Z,22.50
2019-04-14T15:36:04.736Z,23.27
2019-04-14T15:38:08.580Z,22.93
2019-04-14T15:40:12.443Z,23.80
2019-04-14T15:42:16.115Z,24.27
2019-04-14T15:44:19.855Z,24.87
2019-04-14T15:46:23.547Z,25.30
2019-04-14T15:48:27.263Z,24.03
2019-04-14T15:50:30.995Z,23.47
2019-04-14T15:52:34.682Z,23.97
2019-04-14T15:54:38.376Z,26.07
2019-04-14T15:56:43.627Z,23.97
2019-04-14T15:58:48.998Z,24.83
2019-04-14T16:01:12.376Z,24.07
2019-04-14T16:03:20.461Z,27.77
2019-04-14T16:05:34.502Z,25.03
2019-04-14T16:07:56.114Z,24.63
2019-04-14T16:10:13.339Z,22.60
2019-04-14T16:12:18.774Z,24.93
2019-04-14T16:14:40.508Z,26.60
2019-04-14T16:16:51.601Z,29.30
2019-04-14T16:18:56.857Z,23.33
2019-04-14T16:21:00.618Z,26.50
2019-04-14T16:23:04.697Z,26.90
2019-04-14T16:25:09.821Z,28.40
2019-04-14T16:27:27.058Z,26.03
2019-04-14T16:29:32.321Z,27.37
2019-04-14T16:31:46.308Z,25.70
2019-04-14T16:34:07.663Z,27.10
2019-04-14T16:36:11.349Z,25.40
2019-04-14T16:38:15.038Z,27.93
2019-04-14T16:40:18.835Z,25.10
2019-04-14T16:42:22.558Z,27.23
2019-04-14T16:44:26.240Z,27.43
2019-04-14T16:46:30.096Z,27.30
2019-04-14T16:48:33.791Z,29.37
2019-04-14T16:50:37.444Z,27.33
2019-04-14T16:52:45.233Z,28.20
2019-04-14T16:55:08.611Z,27.97
2019-04-14T16:57:31.699Z,27.73
2019-04-14T16:59:35.587Z,26.47
2019-04-14T17:01:41.112Z,26.37
2019-04-14T17:03:44.839Z,27.60
2019-04-14T17:05:58.890Z,27.90
2019-04-14T17:08:02.915Z,28.83
2019-04-14T17:10:06.853Z,26.63
2019-04-14T17:12:10.577Z,26.80
2019-04-14T17:14:15.898Z,26.40
2019-04-14T17:16:36.622Z,30.93
2019-04-14T17:18:41.885Z,28.47
2019-04-14T17:20:59.087Z,27.30
2019-04-14T17:23:16.694Z,29.77
2019-04-14T17:25:21.970Z,29.07
2019-04-14T17:27:27.214Z,27.67
2019-04-14T17:29:44.348Z,25.93
2019-04-14T17:31:49.603Z,29.67
2019-04-14T17:34:09.855Z,26.47
2019-04-14T17:36:30.316Z,28.47
2019-04-14T17:39:03.896Z,27.67
2019-04-14T17:41:09.219Z,26.73
2019-04-14T17:43:17.347Z,28.80
2019-04-14T17:45:25.077Z,29.67
2019-04-14T17:47:30.400Z,28.23
2019-04-14T17:49:38.155Z,27.77
2019-04-14T17:51:43.441Z,26.13
2019-04-14T17:53:48.814Z,25.73
2019-04-14T17:56:09.130Z,29.83
2019-04-14T17:58:17.427Z,27.63
2019-04-14T18:00:38.874Z,23.27
2019-04-14T18:03:00.707Z,25.57
2019-04-14T18:05:06.855Z,27.33
2019-04-14T18:07:14.944Z,24.73
2019-04-14T18:09:28.621Z,23.87
2019-04-14T18:11:33.281Z,24.30
2019-04-14T18:13:44.464Z,23.80
2019-04-14T18:15:58.286Z,25.43
2019-04-14T18:18:25.382Z,22.13
2019-04-14T18:20:37.070Z,22.07
2019-04-14T18:22:41.681Z,22.73
2019-04-14T18:24:45.391Z,25.30
2019-04-14T18:26:50.648Z,22.20
2019-04-14T18:29:01.649Z,22.23
2019-04-14T18:31:21.961Z,21.80
2019-04-14T18:33:29.677Z,25.60
2019-04-14T18:35:40.806Z,23.50
2019-04-14T18:37:52.121Z,23.30
2019-04-14T18:40:12.815Z,22.73
2019-04-14T18:42:23.987Z,22.53
2019-04-14T18:44:29.255Z,22.10
2019-04-14T18:46:39.719Z,22.77
2019-04-14T18:48:44.992Z,23.83
2019-04-14T18:50:51.990Z,22.63
2019-04-14T18:53:00.244Z,23.33
2019-04-14T18:55:09.089Z,22.33
2019-04-14T18:57:14.454Z,20.90
2019-04-14T18:59:22.891Z,23.10
2019-04-14T19:01:28.187Z,21.63
2019-04-14T19:03:31.922Z,22.90
2019-04-14T19:05:35.878Z,24.33
2019-04-14T19:07:39.837Z,23.03
2019-04-14T19:09:43.638Z,20.63
2019-04-14T19:11:51.559Z,21.80
2019-04-14T19:13:59.837Z,20.50
2019-04-14T19:16:20.346Z,19.83
2019-04-14T19:18:28.492Z,25.40
2019-04-14T19:20:32.343Z,23.90
2019-04-14T19:22:36.190Z,19.47
2019-04-14T19:24:41.631Z,20.80
2019-04-14T19:26:45.354Z,21.27
2019-04-14T19:28:49.051Z,22.20
2019-04-14T19:30:52.768Z,17.87
2019-04-14T19:32:56.441Z,17.77
2019-04-14T19:35:00.122Z,20.17
2019-04-14T19:37:03.802Z,15.33
2019-04-14T19:39:10.359Z,17.50
2019-04-14T19:41:14.059Z,17.87
2019-04-14T19:43:23.735Z,15.43
2019-04-14T19:45:23.269Z,15.40
2019-04-14T19:47:26.920Z,16.63
2019-04-14T19:49:30.599Z,15.50
2019-04-14T19:51:34.282Z,16.93
2019-04-14T19:53:37.969Z,15.33
2019-04-14T19:55:41.682Z,14.70
2019-04-14T19:57:45.367Z,14.67
2019-04-14T19:59:49.042Z,14.53
2019-04-14T20:01:52.726Z,14.53
2019-04-14T20:03:56.474Z,13.00
2019-04-14T20:06:00.150Z,15.80
2019-04-14T20:08:03.829Z,14.50
2019-04-14T20:10:08.792Z,14.03
2019-04-14T20:12:13.401Z,13.83
2019-04-14T20:14:17.060Z,14.77
2019-04-14T20:16:27.799Z,14.47
2019-04-14T20:18:49.074Z,13.97
2019-04-14T20:20:57.039Z,14.43
2019-04-14T20:23:11.425Z,14.60
2019-04-14T20:25:33.043Z,15.73
2019-04-14T20:27:35.089Z,14.80
2019-04-14T20:29:52.517Z,16.00
2019-04-14T20:31:57.783Z,12.77
2019-04-14T20:34:01.540Z,19.23
2019-04-14T20:36:05.456Z,13.43
2019-04-14T20:38:09.287Z,14.83
2019-04-14T20:40:12.945Z,14.77
2019-04-14T20:42:16.632Z,13.90
2019-04-14T20:44:20.394Z,13.90
2019-04-14T20:46:24.071Z,12.53
2019-04-14T20:48:27.746Z,13.57
2019-04-14T20:50:31.419Z,13.67
2019-04-14T20:52:38.284Z,13.17
2019-04-14T20:54:41.961Z,13.80
2019-04-14T20:56:45.627Z,13.90
2019-04-14T20:58:49.328Z,15.03
2019-04-14T21:00:53.007Z,13.03
2019-04-14T21:03:04.096Z,15.17
2019-04-14T21:05:27.490Z,14.13
2019-04-14T21:07:49.039Z,14.43
2019-04-14T21:09:54.293Z,12.77
2019-04-14T21:11:59.520Z,13.00
2019-04-14T21:14:19.902Z,13.60
2019-04-14T21:16:36.918Z,14.53
2019-04-14T21:18:50.982Z,15.57
2019-04-14T21:21:05.163Z,14.27
2019-04-14T21:23:30.134Z,13.63
2019-04-14T21:25:44.023Z,14.17
2019-04-14T21:27:52.187Z,14.30
2019-04-14T21:29:57.451Z,14.30
2019-04-14T21:32:02.698Z,14.87
2019-04-14T21:34:13.633Z,17.27
2019-04-14T21:36:18.881Z,15.10
2019-04-14T21:38:29.927Z,15.03
2019-04-14T21:40:44.179Z,14.03
2019-04-14T21:42:47.838Z,15.00
2019-04-14T21:44:51.539Z,15.13
2019-04-14T21:46:55.203Z,16.03
2019-04-14T21:48:58.882Z,15.53
2019-04-14T21:51:02.584Z,15.43
2019-04-14T21:53:06.268Z,15.17
2019-04-14T21:55:09.951Z,14.93
2019-04-14T21:57:30.405Z,13.53
2019-04-14T21:59:35.990Z,16.43
2019-04-14T22:01:57.383Z,15.80
2019-04-14T22:04:02.637Z,15.57
2019-04-14T22:06:07.883Z,16.33
2019-04-14T22:08:13.118Z,16.43
2019-04-14T22:10:24.151Z,15.63
2019-04-14T22:12:28.129Z,14.97
2019-04-14T22:14:31.790Z,16.23
2019-04-14T22:16:36.295Z,16.30
2019-04-14T22:18:39.968Z,16.17
2019-04-14T22:20:43.773Z,16.70
2019-04-14T22:22:47.442Z,16.90
2019-04-14T22:24:51.171Z,15.83
2019-04-14T22:26:56.024Z,17.37
2019-04-14T22:29:02.211Z,16.47
2019-04-14T22:31:05.143Z,16.07
2019-04-14T22:33:08.798Z,15.40
2019-04-14T22:35:12.591Z,15.57
2019-04-14T22:37:16.275Z,15.50
2019-04-14T22:39:20.065Z,17.07
2019-04-14T22:41:23.753Z,15.83
2019-04-14T22:43:27.525Z,17.53
2019-04-14T22:45:31.195Z,18.10
2019-04-14T22:47:34.950Z,15.63
2019-04-14T22:49:38.630Z,16.23
2019-04-14T22:51:42.297Z,15.73
2019-04-14T22:53:45.986Z,17.03
2019-04-14T22:55:49.685Z,17.37
2019-04-14T22:57:53.392Z,16.07
2019-04-14T22:59:57.048Z,17.63
2019-04-14T23:02:07.750Z,17.80
2019-04-14T23:04:16.334Z,18.03
2019-04-14T23:06:37.814Z,16.80
2019-04-14T23:08:43.046Z,17.97
2019-04-14T23:11:04.352Z,16.57
2019-04-14T23:13:12.310Z,19.07
2019-04-14T23:15:17.555Z,17.57
2019-04-14T23:17:23.135Z,17.73
2019-04-14T23:19:28.426Z,17.73
2019-04-14T23:21:33.910Z,17.47
2019-04-14T23:23:39.184Z,18.33
2019-04-14T23:25:42.911Z,19.40
2019-04-14T23:27:46.730Z,18.23
2019-04-14T23:29:50.402Z,18.70
2019-04-14T23:31:54.206Z,20.67
2019-04-14T23:33:57.879Z,18.73
2019-04-14T23:36:01.514Z,18.70
2019-04-14T23:38:05.218Z,18.23
2019-04-14T23:40:08.911Z,19.10
2019-04-14T23:42:12.634Z,19.57
2019-04-14T23:44:16.291Z,18.87
2019-04-14T23:46:20.109Z,18.33
2019-04-14T23:48:23.931Z,19.33
2019-04-14T23:50:27.586Z,18.00
2019-04-14T23:52:31.287Z,17.50
2019-04-14T23:54:34.969Z,18.47
2019-04-14T23:56:38.779Z,18.47
2019-04-14T23:58:42.467Z,18.20
